createdAt,value
2018-07-25T00:00:32.657Z,19.00
2018-07-25T00:03:00.881Z,18.90
2018-07-25T00:05:29.113Z,18.80
2018-07-25T00:07:57.359Z,18.80
2018-07-25T00:10:31.037Z,18.80
2018-07-25T00:12:59.258Z,18.80
2018-07-25T00:15:27.514Z,18.80
2018-07-25T00:17:55.735Z,18.80
2018-07-25T00:20:23.964Z,18.70
2018-07-25T00:22:52.180Z,18.70
2018-07-25T00:25:20.413Z,18.70
2018-07-25T00:27:48.635Z,18.70
2018-07-25T00:30:16.862Z,18.70
2018-07-25T00:32:45.099Z,18.60
2018-07-25T00:35:13.315Z,18.60
2018-07-25T00:37:41.569Z,18.60
2018-07-25T00:40:09.801Z,18.60
2018-07-25T00:42:38.100Z,18.60
2018-07-25T00:45:06.337Z,18.60
2018-07-25T00:47:34.589Z,18.50
2018-07-25T00:50:02.806Z,18.50
2018-07-25T00:52:31.032Z,18.50
2018-07-25T00:54:59.270Z,18.50
2018-07-25T00:57:27.535Z,18.50
2018-07-25T00:59:55.800Z,18.50
2018-07-25T01:04:52.029Z,18.60
2018-07-25T01:07:20.280Z,18.50
2018-07-25T01:09:48.496Z,18.50
2018-07-25T01:12:16.736Z,18.50
2018-07-25T01:14:44.946Z,18.40
2018-07-25T01:17:13.171Z,18.40
2018-07-25T01:19:41.394Z,18.40
2018-07-25T01:22:09.739Z,18.30
2018-07-25T01:24:37.991Z,18.30
2018-07-25T01:27:06.359Z,18.20
2018-07-25T01:29:34.593Z,18.20
2018-07-25T01:32:02.824Z,18.10
2018-07-25T01:34:31.031Z,18.20
2018-07-25T01:36:59.278Z,18.10
2018-07-25T01:39:27.500Z,18.10
2018-07-25T01:41:55.761Z,18.10
2018-07-25T01:46:56.009Z,18.00
2018-07-25T01:49:24.221Z,17.90
2018-07-25T01:51:52.445Z,17.90
2018-07-25T01:54:20.653Z,17.90
2018-07-25T01:56:48.880Z,17.90
2018-07-25T01:59:17.090Z,17.80
2018-07-25T02:01:45.417Z,17.80
2018-07-25T02:04:13.613Z,17.80
2018-07-25T02:09:10.748Z,17.70
2018-07-25T02:11:39.124Z,17.80
2018-07-25T02:14:07.381Z,17.70
2018-07-25T02:16:35.599Z,17.70
2018-07-25T02:19:03.837Z,17.70
2018-07-25T02:21:32.072Z,17.60
2018-07-25T02:24:00.332Z,17.70
2018-07-25T02:26:28.593Z,17.60
2018-07-25T02:28:56.840Z,17.70
2018-07-25T02:31:25.065Z,17.70
2018-07-25T02:33:58.657Z,17.80
2018-07-25T02:36:27.295Z,17.70
2018-07-25T02:38:55.539Z,17.70
2018-07-25T02:41:23.797Z,17.80
2018-07-25T02:43:52.255Z,17.80
2018-07-25T02:46:20.409Z,17.90
2018-07-25T02:48:48.643Z,17.90
2018-07-25T02:51:16.856Z,17.90
2018-07-25T02:53:45.451Z,17.90
2018-07-25T02:56:13.663Z,17.90
2018-07-25T02:58:41.895Z,17.90
2018-07-25T03:01:10.188Z,17.90
2018-07-25T03:03:38.407Z,17.90
2018-07-25T03:06:06.617Z,17.80
2018-07-25T03:08:34.887Z,17.80
2018-07-25T03:11:03.125Z,17.80
2018-07-25T03:13:31.384Z,17.80
2018-07-25T03:16:02.685Z,17.80
2018-07-25T03:18:30.986Z,17.80
2018-07-25T03:21:00.235Z,17.70
2018-07-25T03:23:28.951Z,17.80
2018-07-25T03:25:57.208Z,17.80
2018-07-25T03:28:25.989Z,17.90
2018-07-25T03:30:54.349Z,17.90
2018-07-25T03:33:23.362Z,17.80
2018-07-25T03:35:51.620Z,17.80
2018-07-25T03:38:20.390Z,17.70
2018-07-25T03:40:48.894Z,17.80
2018-07-25T03:43:17.184Z,17.80
2018-07-25T03:45:45.769Z,17.80
2018-07-25T03:48:14.028Z,17.80
2018-07-25T03:50:42.278Z,17.70
2018-07-25T03:53:10.512Z,17.80
2018-07-25T03:58:06.737Z,17.90
2018-07-25T04:00:35.252Z,18.10
2018-07-25T04:03:03.550Z,18.20
2018-07-25T04:05:31.762Z,18.30
2018-07-25T04:08:00.021Z,18.40
2018-07-25T04:10:28.292Z,18.40
2018-07-25T04:12:56.717Z,18.50
2018-07-25T04:15:24.935Z,18.60
2018-07-25T04:17:53.162Z,18.60
2018-07-25T04:20:21.438Z,18.60
2018-07-25T04:25:17.686Z,18.90
2018-07-25T04:27:46.763Z,19.00
2018-07-25T04:30:16.282Z,19.10
2018-07-25T04:32:45.065Z,19.30
2018-07-25T04:35:14.459Z,19.40
2018-07-25T04:37:43.120Z,19.60
2018-07-25T04:40:11.424Z,19.70
2018-07-25T04:42:39.691Z,19.90
2018-07-25T04:45:09.154Z,20.00
2018-07-25T04:47:37.392Z,20.10
2018-07-25T04:50:05.705Z,20.20
2018-07-25T04:52:33.936Z,20.40
2018-07-25T04:55:02.235Z,20.50
2018-07-25T04:57:30.460Z,20.70
2018-07-25T04:59:58.716Z,20.90
2018-07-25T05:02:26.968Z,21.10
2018-07-25T05:04:55.212Z,21.30
2018-07-25T05:07:23.453Z,21.40
2018-07-25T05:09:51.688Z,21.50
2018-07-25T05:12:19.912Z,21.50
2018-07-25T05:14:48.157Z,21.60
2018-07-25T05:17:16.388Z,21.60
2018-07-25T05:19:44.652Z,21.60
2018-07-25T05:24:40.903Z,21.70
2018-07-25T05:27:09.176Z,21.70
2018-07-25T05:29:37.409Z,21.70
2018-07-25T05:32:05.641Z,21.60
2018-07-25T05:34:33.872Z,21.60
2018-07-25T05:37:02.086Z,21.60
2018-07-25T05:39:30.332Z,21.60
2018-07-25T05:41:58.618Z,21.60
2018-07-25T05:44:26.924Z,21.70
2018-07-25T05:46:55.156Z,21.80
2018-07-25T05:49:23.377Z,21.80
2018-07-25T05:51:51.616Z,21.90
2018-07-25T05:54:19.894Z,21.90
2018-07-25T05:56:48.179Z,22.00
2018-07-25T06:01:44.383Z,22.10
2018-07-25T06:04:12.654Z,22.20
2018-07-25T06:06:40.861Z,22.30
2018-07-25T06:09:10.062Z,22.40
2018-07-25T06:11:38.475Z,22.50
2018-07-25T06:14:06.698Z,22.60
2018-07-25T06:16:34.945Z,22.70
2018-07-25T06:19:03.201Z,22.80
2018-07-25T06:21:31.555Z,22.90
2018-07-25T06:23:59.792Z,23.10
2018-07-25T06:26:28.108Z,23.30
2018-07-25T06:28:56.352Z,23.60
2018-07-25T06:31:24.670Z,23.90
2018-07-25T06:33:52.888Z,24.00
2018-07-25T06:36:21.119Z,24.00
2018-07-25T06:38:49.343Z,24.00
2018-07-25T06:41:17.654Z,24.00
2018-07-25T06:43:45.955Z,24.20
2018-07-25T06:46:14.286Z,24.60
2018-07-25T06:48:42.488Z,25.10
2018-07-25T06:51:10.740Z,25.70
2018-07-25T06:53:39.306Z,26.10
2018-07-25T06:58:35.575Z,26.50
2018-07-25T07:01:03.882Z,26.60
2018-07-25T07:03:32.100Z,26.60
2018-07-25T07:06:00.353Z,26.50
2018-07-25T07:08:28.557Z,26.40
2018-07-25T07:10:56.808Z,26.40
2018-07-25T07:13:25.029Z,26.40
2018-07-25T07:15:53.281Z,26.40
2018-07-25T07:18:21.488Z,26.70
2018-07-25T07:20:49.732Z,26.80
2018-07-25T07:23:17.948Z,27.00
2018-07-25T07:25:46.218Z,27.30
2018-07-25T07:28:14.420Z,27.80
2018-07-25T07:30:42.735Z,29.50
2018-07-25T07:33:10.953Z,30.80
2018-07-25T07:35:39.294Z,31.70
2018-07-25T07:38:07.519Z,34.10
2018-07-25T07:40:35.740Z,36.90
2018-07-25T07:43:03.989Z,38.30
2018-07-25T07:45:32.240Z,40.30
2018-07-25T07:48:00.563Z,41.30
2018-07-25T07:50:28.804Z,39.80
2018-07-25T07:52:57.052Z,38.90
2018-07-25T07:55:25.275Z,38.80
2018-07-25T07:57:53.501Z,39.30
2018-07-25T08:00:21.728Z,41.10
2018-07-25T08:02:49.957Z,42.80
2018-07-25T08:05:18.186Z,44.30
2018-07-25T08:07:46.508Z,45.40
2018-07-25T08:10:14.773Z,45.60
2018-07-25T08:12:42.991Z,46.40
2018-07-25T08:15:11.203Z,47.00
2018-07-25T08:17:39.558Z,46.30
2018-07-25T08:20:07.777Z,46.20
2018-07-25T08:22:36.074Z,46.20
2018-07-25T08:25:04.344Z,46.70
2018-07-25T08:27:33.285Z,46.40
2018-07-25T08:30:01.493Z,45.60
2018-07-25T08:32:30.157Z,44.10
2018-07-25T08:34:58.373Z,44.00
2018-07-25T08:37:26.635Z,44.70
2018-07-25T08:39:55.589Z,43.10
2018-07-25T08:42:23.842Z,43.20
2018-07-25T08:44:52.059Z,43.90
2018-07-25T08:47:20.308Z,44.60
2018-07-25T08:49:48.512Z,44.90
2018-07-25T08:52:16.755Z,44.70
2018-07-25T08:54:44.968Z,44.20
2018-07-25T08:57:13.221Z,43.20
2018-07-25T08:59:41.456Z,42.80
2018-07-25T09:02:09.705Z,42.60
2018-07-25T09:04:38.004Z,42.00
2018-07-25T09:07:06.291Z,42.60
2018-07-25T09:09:34.535Z,42.40
2018-07-25T09:12:02.769Z,41.90
2018-07-25T09:14:30.993Z,40.60
2018-07-25T09:19:27.267Z,37.40
2018-07-25T09:21:55.509Z,38.00
2018-07-25T09:26:51.740Z,40.50
2018-07-25T09:29:20.042Z,41.60
2018-07-25T09:31:48.277Z,42.70
2018-07-25T09:34:16.611Z,43.60
2018-07-25T09:36:44.739Z,43.80
2018-07-25T09:39:12.989Z,44.30
2018-07-25T09:41:41.256Z,43.90
2018-07-25T09:44:09.490Z,41.40
2018-07-25T09:46:37.795Z,39.80
2018-07-25T09:49:06.091Z,39.70
2018-07-25T09:51:34.349Z,38.00
2018-07-25T09:54:02.571Z,35.90
2018-07-25T09:56:30.825Z,34.30
2018-07-25T09:58:59.192Z,32.90
2018-07-25T10:01:27.359Z,31.90
2018-07-25T10:03:55.645Z,31.60
2018-07-25T10:06:23.866Z,32.80
2018-07-25T10:08:52.120Z,35.00
2018-07-25T10:11:22.848Z,35.70
2018-07-25T10:13:51.886Z,34.90
2018-07-25T10:16:20.141Z,33.10
2018-07-25T10:18:48.405Z,32.00
2018-07-25T10:21:16.641Z,33.20
2018-07-25T10:23:44.885Z,33.80
2018-07-25T10:26:13.177Z,33.20
2018-07-25T10:28:41.433Z,32.30
2018-07-25T10:31:09.786Z,31.80
2018-07-25T10:33:38.026Z,31.70
2018-07-25T10:36:06.323Z,31.90
2018-07-25T10:38:34.544Z,32.60
2018-07-25T10:41:02.795Z,32.70
2018-07-25T10:43:31.049Z,32.90
2018-07-25T10:48:27.309Z,32.20
2018-07-25T10:50:55.537Z,32.00
2018-07-25T10:53:23.803Z,32.20
2018-07-25T10:55:52.321Z,32.50
2018-07-25T10:58:20.536Z,32.80
2018-07-25T11:00:48.765Z,33.10
2018-07-25T11:05:45.073Z,33.80
2018-07-25T11:08:13.342Z,34.00
2018-07-25T11:10:41.561Z,34.00
2018-07-25T11:13:09.850Z,34.00
2018-07-25T11:15:38.120Z,33.70
2018-07-25T11:18:06.442Z,33.60
2018-07-25T11:20:34.716Z,33.80
2018-07-25T11:23:03.077Z,34.00
2018-07-25T11:25:31.201Z,34.30
2018-07-25T11:27:59.443Z,34.60
2018-07-25T11:30:27.666Z,34.70
2018-07-25T11:32:55.962Z,34.80
2018-07-25T11:35:24.153Z,34.50
2018-07-25T11:37:52.509Z,34.30
2018-07-25T11:40:20.746Z,34.40
2018-07-25T11:42:48.972Z,34.60
2018-07-25T11:45:17.212Z,34.90
2018-07-25T11:47:45.454Z,34.90
2018-07-25T11:50:13.712Z,34.90
2018-07-25T11:52:41.956Z,34.60
2018-07-25T11:55:10.182Z,34.30
2018-07-25T11:57:38.411Z,34.30
2018-07-25T12:00:07.029Z,34.50
2018-07-25T12:02:35.232Z,34.60
2018-07-25T12:05:03.490Z,34.70
2018-07-25T12:07:31.735Z,34.70
2018-07-25T12:10:00.009Z,34.60
2018-07-25T12:12:28.281Z,34.60
2018-07-25T12:14:56.521Z,34.50
2018-07-25T12:17:24.761Z,34.60
2018-07-25T12:19:53.011Z,34.70
2018-07-25T12:22:21.269Z,34.80
2018-07-25T12:24:49.522Z,34.70
2018-07-25T12:27:17.761Z,34.70
2018-07-25T12:29:48.787Z,34.60
2018-07-25T12:32:17.031Z,34.50
2018-07-25T12:34:45.302Z,34.20
2018-07-25T12:37:13.531Z,34.00
2018-07-25T12:39:41.779Z,34.10
2018-07-25T12:42:10.180Z,34.20
2018-07-25T12:44:38.482Z,34.30
2018-07-25T12:49:34.956Z,34.30
2018-07-25T12:52:03.214Z,34.10
2018-07-25T12:54:31.523Z,34.00
2018-07-25T12:56:59.744Z,33.80
2018-07-25T12:59:27.998Z,33.80
2018-07-25T13:01:56.283Z,33.80
2018-07-25T13:04:24.516Z,33.80
2018-07-25T13:06:52.757Z,33.60
2018-07-25T13:09:21.031Z,33.60
2018-07-25T13:11:49.276Z,33.60
2018-07-25T13:14:17.519Z,33.70
2018-07-25T13:16:45.761Z,33.80
2018-07-25T13:19:14.026Z,33.90
2018-07-25T13:21:42.263Z,33.90
2018-07-25T13:24:10.541Z,33.90
2018-07-25T13:26:38.929Z,33.90
2018-07-25T13:29:07.186Z,33.90
2018-07-25T13:31:35.445Z,33.60
2018-07-25T13:34:03.737Z,33.30
2018-07-25T13:36:31.966Z,33.20
2018-07-25T13:39:00.987Z,33.20
2018-07-25T13:41:29.242Z,33.30
2018-07-25T13:43:57.483Z,33.40
2018-07-25T13:46:25.749Z,33.50
2018-07-25T13:48:53.947Z,33.50
2018-07-25T13:51:22.181Z,33.60
2018-07-25T13:53:50.465Z,33.50
2018-07-25T13:56:18.712Z,33.30
2018-07-25T13:58:47.059Z,33.30
2018-07-25T14:01:15.332Z,33.20
2018-07-25T14:03:43.626Z,33.30
2018-07-25T14:06:11.900Z,33.40
2018-07-25T14:08:40.236Z,33.40
2018-07-25T14:13:36.880Z,33.40
2018-07-25T14:16:05.449Z,33.40
2018-07-25T14:18:33.727Z,33.40
2018-07-25T14:23:30.187Z,33.40
2018-07-25T14:25:58.461Z,33.40
2018-07-25T14:28:26.717Z,33.40
2018-07-25T14:30:54.965Z,33.40
2018-07-25T14:33:23.220Z,33.40
2018-07-25T14:35:51.484Z,33.40
2018-07-25T14:38:20.184Z,33.40
2018-07-25T14:40:48.445Z,33.20
2018-07-25T14:43:16.739Z,33.10
2018-07-25T14:45:44.949Z,33.00
2018-07-25T14:48:13.176Z,32.70
2018-07-25T14:50:41.471Z,32.60
2018-07-25T14:53:09.729Z,32.50
2018-07-25T14:55:37.960Z,32.60
2018-07-25T14:58:06.447Z,32.60
2018-07-25T15:00:34.738Z,32.80
2018-07-25T15:03:02.989Z,32.90
2018-07-25T15:05:31.285Z,33.10
2018-07-25T15:07:59.581Z,33.10
2018-07-25T15:10:27.858Z,33.10
2018-07-25T15:12:57.539Z,33.00
2018-07-25T15:15:26.344Z,32.90
2018-07-25T15:17:54.925Z,32.80
2018-07-25T15:20:23.292Z,32.80
2018-07-25T15:22:51.623Z,32.70
2018-07-25T15:25:19.819Z,32.80
2018-07-25T15:27:48.333Z,32.70
2018-07-25T15:30:16.609Z,32.60
2018-07-25T15:32:44.859Z,32.60
2018-07-25T15:35:13.169Z,32.60
2018-07-25T15:37:41.406Z,32.50
2018-07-25T15:40:09.664Z,32.50
2018-07-25T15:42:37.916Z,32.40
2018-07-25T15:45:06.430Z,32.40
2018-07-25T15:47:34.687Z,32.30
2018-07-25T15:50:02.944Z,32.30
2018-07-25T15:52:31.169Z,32.20
2018-07-25T15:54:59.400Z,32.30
2018-07-25T15:57:27.666Z,32.20
2018-07-25T15:59:55.919Z,32.20
2018-07-25T16:02:24.193Z,32.20
2018-07-25T16:04:52.430Z,32.20
2018-07-25T16:07:20.773Z,32.10
2018-07-25T16:09:49.020Z,32.10
2018-07-25T16:12:17.283Z,32.10
2018-07-25T16:17:13.532Z,32.00
2018-07-25T16:19:41.791Z,31.90
2018-07-25T16:22:10.045Z,31.90
2018-07-25T16:24:38.264Z,31.80
2018-07-25T16:27:06.734Z,31.80
2018-07-25T16:29:34.959Z,31.70
2018-07-25T16:32:03.214Z,31.70
2018-07-25T16:34:31.441Z,31.70
2018-07-25T16:39:27.716Z,31.60
2018-07-25T16:41:55.973Z,31.50
2018-07-25T16:46:52.251Z,31.50
2018-07-25T16:49:20.516Z,31.40
2018-07-25T16:51:48.781Z,31.40
2018-07-25T16:54:17.019Z,31.40
2018-07-25T16:56:45.314Z,31.30
2018-07-25T17:01:41.572Z,31.00
2018-07-25T17:04:09.812Z,30.90
2018-07-25T17:06:38.093Z,30.70
2018-07-25T17:09:07.975Z,30.60
2018-07-25T17:11:36.232Z,30.50
2018-07-25T17:14:04.497Z,30.50
2018-07-25T17:16:32.739Z,30.40
2018-07-25T17:19:00.983Z,30.20
2018-07-25T17:21:29.274Z,30.20
2018-07-25T17:23:57.508Z,30.10
2018-07-25T17:26:26.973Z,29.90
2018-07-25T17:28:55.208Z,29.80
2018-07-25T17:31:23.457Z,29.80
2018-07-25T17:33:51.702Z,29.70
2018-07-25T17:36:19.978Z,29.50
2018-07-25T17:41:16.300Z,29.30
2018-07-25T17:43:44.542Z,29.20
2018-07-25T17:46:12.784Z,29.10
2018-07-25T17:48:41.050Z,29.00
2018-07-25T17:51:09.292Z,28.80
2018-07-25T17:53:37.549Z,28.70
2018-07-25T17:56:06.088Z,28.60
2018-07-25T17:58:34.323Z,28.50
2018-07-25T18:01:02.592Z,28.40
2018-07-25T18:03:30.902Z,28.20
2018-07-25T18:05:59.155Z,28.20
2018-07-25T18:08:27.405Z,27.90
2018-07-25T18:10:55.628Z,27.90
2018-07-25T18:14:29.568Z,27.70
2018-07-25T18:16:57.820Z,27.60
2018-07-25T18:19:26.075Z,27.60
2018-07-25T18:21:54.351Z,27.50
2018-07-25T18:24:22.593Z,27.40
2018-07-25T18:26:50.855Z,27.30
2018-07-25T18:29:19.175Z,27.30
2018-07-25T18:31:47.395Z,27.40
2018-07-25T18:34:15.640Z,27.40
2018-07-25T18:39:12.344Z,27.00
2018-07-25T18:41:41.116Z,26.90
2018-07-25T18:44:09.775Z,26.80
2018-07-25T18:46:38.037Z,26.70
2018-07-25T18:49:06.315Z,26.50
2018-07-25T18:51:34.608Z,26.40
2018-07-25T18:54:02.873Z,26.20
2018-07-25T18:56:31.124Z,26.00
2018-07-25T18:58:59.363Z,25.90
2018-07-25T19:01:29.975Z,25.90
2018-07-25T19:03:58.290Z,25.80
2018-07-25T19:06:26.575Z,25.60
2018-07-25T19:08:54.992Z,25.50
2018-07-25T19:11:23.542Z,25.40
2018-07-25T19:13:57.309Z,25.40
2018-07-25T19:16:25.774Z,25.30
2018-07-25T19:18:54.016Z,25.20
2018-07-25T19:21:22.254Z,25.10
2018-07-25T19:23:50.599Z,25.00
2018-07-25T19:28:47.398Z,24.90
2018-07-25T19:31:15.832Z,24.80
2018-07-25T19:33:44.926Z,24.70
2018-07-25T19:36:13.509Z,24.70
2018-07-25T19:38:41.831Z,24.60
2018-07-25T19:41:10.110Z,24.50
2018-07-25T19:43:38.448Z,24.50
2018-07-25T19:46:06.903Z,24.30
2018-07-25T19:51:03.323Z,24.10
2018-07-25T19:53:32.089Z,24.10
2018-07-25T19:56:00.401Z,24.00
2018-07-25T19:58:28.640Z,24.00
2018-07-25T20:00:56.976Z,24.10
2018-07-25T20:03:25.248Z,24.00
2018-07-25T20:08:21.597Z,23.70
2018-07-25T20:10:49.811Z,23.60
2018-07-25T20:13:18.089Z,23.60
2018-07-25T20:15:51.760Z,23.50
2018-07-25T20:18:20.141Z,23.40
2018-07-25T20:20:48.453Z,23.50
2018-07-25T20:23:16.711Z,23.30
2018-07-25T20:25:45.093Z,23.20
2018-07-25T20:28:13.933Z,23.10
2018-07-25T20:33:10.407Z,22.90
2018-07-25T20:35:40.357Z,22.90
2018-07-25T20:38:08.584Z,22.90
2018-07-25T20:40:36.803Z,22.90
2018-07-25T20:43:05.054Z,22.80
2018-07-25T20:45:33.322Z,22.70
2018-07-25T20:48:01.553Z,22.60
2018-07-25T20:52:57.816Z,22.50
2018-07-25T20:55:26.073Z,22.40
2018-07-25T20:57:54.346Z,22.30
2018-07-25T21:00:33.022Z,22.40
2018-07-25T21:03:01.837Z,22.50
2018-07-25T21:05:30.303Z,22.50
2018-07-25T21:07:58.557Z,22.50
2018-07-25T21:10:26.836Z,22.40
2018-07-25T21:12:55.176Z,22.30
2018-07-25T21:17:51.589Z,22.10
2018-07-25T21:20:19.891Z,22.00
2018-07-25T21:22:48.133Z,21.90
2018-07-25T21:25:16.365Z,21.80
2018-07-25T21:27:44.600Z,21.70
2018-07-25T21:30:12.834Z,21.80
2018-07-25T21:32:41.210Z,21.70
2018-07-25T21:35:09.498Z,21.70
2018-07-25T21:37:37.773Z,21.70
2018-07-25T21:40:06.054Z,21.60
2018-07-25T21:42:34.310Z,21.60
2018-07-25T21:45:02.575Z,21.60
2018-07-25T21:47:30.808Z,21.50
2018-07-25T21:49:59.059Z,21.50
2018-07-25T21:52:27.265Z,21.50
2018-07-25T21:54:55.533Z,21.40
2018-07-25T21:57:23.769Z,21.40
2018-07-25T21:59:52.056Z,21.30
2018-07-25T22:02:20.320Z,21.30
2018-07-25T22:04:48.569Z,21.20
2018-07-25T22:07:16.824Z,21.20
2018-07-25T22:09:45.088Z,21.20
2018-07-25T22:14:41.296Z,21.10
2018-07-25T22:17:09.531Z,21.00
2018-07-25T22:19:37.794Z,21.00
2018-07-25T22:22:06.013Z,21.00
2018-07-25T22:24:34.251Z,20.90
2018-07-25T22:27:02.510Z,20.90
2018-07-25T22:31:58.780Z,20.80
2018-07-25T22:34:27.030Z,20.80
2018-07-25T22:36:55.253Z,20.80
2018-07-25T22:39:23.512Z,20.70
2018-07-25T22:41:51.736Z,20.60
2018-07-25T22:44:20.224Z,20.60
2018-07-25T22:49:16.452Z,20.40
2018-07-25T22:51:44.717Z,20.40
2018-07-25T22:54:12.960Z,20.30
2018-07-25T22:56:41.231Z,20.30
2018-07-25T22:59:09.449Z,20.30
2018-07-25T23:01:37.700Z,20.30
2018-07-25T23:04:05.981Z,20.30
2018-07-25T23:06:34.261Z,20.20
2018-07-25T23:09:02.521Z,20.20
2018-07-25T23:11:30.788Z,20.10
2018-07-25T23:13:59.032Z,20.10
2018-07-25T23:16:27.288Z,20.10
2018-07-25T23:21:23.568Z,20.00
2018-07-25T23:23:51.821Z,20.00
2018-07-25T23:26:20.097Z,19.90
2018-07-25T23:28:48.348Z,19.90
2018-07-25T23:31:16.692Z,19.90
2018-07-25T23:33:44.929Z,19.80
2018-07-25T23:36:13.175Z,19.70
2018-07-25T23:38:41.419Z,19.60
2018-07-25T23:41:09.695Z,19.60
2018-07-25T23:43:37.944Z,19.60
2018-07-25T23:46:06.992Z,19.50
2018-07-25T23:48:35.235Z,19.50
2018-07-25T23:51:03.491Z,19.50
2018-07-25T23:53:31.733Z,19.40
2018-07-25T23:56:00.021Z,19.40
2018-07-25T23:58:28.244Z,19.40
